Time;durP1;ratioP1;P1;durP2;ratioP2;P2;SDS_P1;SDS_P2;PMS_P1;PMS_P2;Temp;Humidity;BMP_temperature;BMP_pressure;BME280_temperature;BME280_humidity;BME280_pressure;Samples;Min_cycle;Max_cycle;Signal;HPM_P1;HPM_P2
2023/01/07 00:01:31;;;;;;;9.30;3.70;;;;;;;-7.99;60.02;100047.33;24550;1327;3026342;-67
2023/01/07 00:04:03;;;;;;;8.50;3.20;;;;;;;-8.21;60.69;100054.79;24593;1334;3026787;-65
2023/01/07 00:06:35;;;;;;;5.90;3.10;;;;;;;-8.57;61.62;100070.08;24577;1334;3025944;-64
2023/01/07 00:09:05;;;;;;;8.50;3.70;;;;;;;-8.82;62.21;100068.39;24529;1343;3027433;-65
2023/01/07 00:11:35;;;;;;;8.70;3.10;;;;;;;-8.98;62.95;100076.61;24572;1333;3027196;-64
2023/01/07 00:14:06;;;;;;;8.40;3.80;;;;;;;-8.90;63.79;100075.27;24568;1334;3026879;-65
2023/01/07 00:16:36;;;;;;;6.50;3.70;;;;;;;-8.95;63.83;100077.02;24589;1343;3026881;-65
2023/01/07 00:19:24;;;;;;;14.10;2.80;;;;;;;-9.07;64.08;100076.84;24456;1327;3069070;-64
2023/01/07 00:21:53;;;;;;;9.30;3.40;;;;;;;-9.13;64.33;100080.77;24521;1334;3025994;-66
2023/01/07 00:24:23;;;;;;;7.60;3.40;;;;;;;-9.05;63.70;100082.33;24590;1340;3047656;-63
2023/01/07 00:26:52;;;;;;;7.50;2.90;;;;;;;-9.16;64.21;100084.08;24512;1333;3026212;-68
2023/01/07 00:29:21;;;;;;;5.50;2.00;;;;;;;-9.28;64.10;100086.77;24524;1332;3027976;-65
2023/01/07 00:31:51;;;;;;;7.30;2.20;;;;;;;-9.05;63.76;100090.66;24593;1327;3025954;-63
2023/01/07 00:34:22;;;;;;;5.30;2.80;;;;;;;-8.24;61.07;100082.75;24494;1327;3067548;-65
2023/01/07 00:37:16;;;;;;;8.50;3.50;;;;;;;-7.69;58.11;100079.15;24495;1327;3026174;-64
2023/01/07 00:39:40;;;;;;;8.40;3.10;;;;;;;-7.89;56.46;100087.02;24571;1334;3056956;-63
2023/01/07 00:44:57;;;;;;;6.40;3.20;;;;;;;-8.62;56.80;100095.58;24500;1334;3053456;-64
2023/01/07 00:47:26;;;;;;;8.60;2.70;;;;;;;-8.96;57.30;100103.13;24570;1327;3028013;-64
2023/01/07 00:49:56;;;;;;;8.40;3.20;;;;;;;-9.12;57.48;100107.61;24531;1334;3052400;-65
2023/01/07 00:52:25;;;;;;;9.30;3.80;;;;;;;-9.14;58.00;100108.91;24492;1344;3026078;-66
2023/01/07 00:54:54;;;;;;;8.60;3.30;;;;;;;-8.94;58.03;100110.66;24481;1334;3027051;-64
2023/01/07 00:57:24;;;;;;;7.80;3.40;;;;;;;-8.96;58.51;100108.56;24475;1329;3052930;-66
2023/01/07 00:59:54;;;;;;;6.20;3.20;;;;;;;-9.02;58.75;100104.31;24498;1334;3026845;-62
2023/01/07 01:02:23;;;;;;;8.30;3.30;;;;;;;-9.09;58.91;100103.63;24523;1327;3028289;-63
2023/01/07 01:04:52;;;;;;;6.90;3.10;;;;;;;-9.15;58.82;100104.98;24526;1333;3052426;-65
2023/01/07 01:07:21;;;;;;;8.00;3.00;;;;;;;-9.43;59.74;100103.45;24548;1334;3026456;-63
2023/01/07 01:09:50;;;;;;;3.30;1.40;;;;;;;-9.28;59.45;100113.09;24608;1327;3026554;-66
2023/01/07 01:12:19;;;;;;;4.90;1.90;;;;;;;-8.67;58.74;100118.20;24521;1327;3051893;-67
2023/01/07 01:14:50;;;;;;;7.90;3.40;;;;;;;-8.14;57.01;100119.73;24542;1341;3028643;-62
2023/01/07 01:17:20;;;;;;;7.00;3.60;;;;;;;-8.19;56.84;100131.50;24541;1334;3027011;-66
2023/01/07 01:19:49;;;;;;;5.10;2.70;;;;;;;-8.55;57.42;100130.61;24587;1326;3052176;-64
2023/01/07 01:22:21;;;;;;;5.40;2.40;;;;;;;-8.66;57.86;100129.27;24484;1327;3028552;-65
2023/01/07 01:24:50;;;;;;;6.20;2.90;;;;;;;-9.04;58.62;100131.09;24498;1336;3058184;-66
2023/01/07 01:27:19;;;;;;;6.10;3.10;;;;;;;-9.20;59.27;100132.32;24528;1319;3025953;-62
2023/01/07 01:29:48;;;;;;;11.00;3.60;;;;;;;-9.20;59.93;100135.22;24500;1340;3049453;-65
2023/01/07 01:32:18;;;;;;;5.90;3.00;;;;;;;-9.28;59.95;100137.02;24560;1327;3028198;-65
2023/01/07 01:34:47;;;;;;;7.40;3.30;;;;;;;-9.45;60.71;100139.21;24526;1327;3026548;-63
2023/01/07 01:37:16;;;;;;;8.30;3.50;;;;;;;-9.49;61.30;100130.60;24541;1326;3049386;-65
2023/01/07 01:39:46;;;;;;;6.40;2.20;;;;;;;-9.59;61.80;100126.07;24539;1330;3024447;-66
2023/01/07 01:42:20;;;;;;;4.00;2.20;;;;;;;-9.33;61.74;100119.88;24515;1334;3028518;-65
2023/01/07 01:44:51;;;;;;;8.40;2.90;;;;;;;-8.45;59.26;100119.12;24532;1327;3027305;-62
2023/01/07 01:47:50;;;;;;;6.90;3.20;;;;;;;-8.28;58.00;100128.90;24562;1330;3050984;-68
2023/01/07 01:50:30;;;;;;;5.70;2.60;;;;;;;-8.62;58.12;100134.97;24593;1328;3053112;-65
2023/01/07 01:53:11;;;;;;;8.10;3.70;;;;;;;-8.97;59.51;100143.36;24481;1327;3049396;-68
2023/01/07 01:55:54;;;;;;;6.50;3.20;;;;;;;-9.04;60.15;100144.83;24545;1333;3069479;-68
2023/01/07 01:58:28;;;;;;;10.00;3.60;;;;;;;-9.06;59.99;100149.73;24502;1337;3050475;-68
2023/01/07 02:00:58;;;;;;;13.40;3.50;;;;;;;-9.24;59.66;100151.72;24500;1327;3056164;-67
2023/01/07 02:03:29;;;;;;;9.80;3.50;;;;;;;-9.59;60.74;100154.35;24532;1334;3026989;-67
2023/01/07 02:05:58;;;;;;;7.60;3.60;;;;;;;-9.74;61.23;100152.70;24540;1334;3050205;-65
2023/01/07 02:08:27;;;;;;;4.80;2.00;;;;;;;-9.93;62.04;100146.32;24554;1331;3025816;-63
2023/01/07 02:11:24;;;;;;;5.90;2.20;;;;;;;-9.64;61.97;100144.53;24473;1333;3068749;-66
2023/01/07 02:14:12;;;;;;;5.00;2.30;;;;;;;-8.95;60.34;100154.45;24553;1341;3050402;-69
2023/01/07 02:16:56;;;;;;;7.80;2.70;;;;;;;-8.82;59.14;100158.89;24529;1342;3057897;-65
2023/01/07 02:19:47;;;;;;;6.10;3.00;;;;;;;-8.84;58.89;100158.84;24514;1331;3052062;-68
2023/01/07 02:22:47;;;;;;;6.90;2.70;;;;;;;-9.10;59.59;100166.74;24574;1335;3052508;-64
2023/01/07 02:25:47;;;;;;;5.00;2.30;;;;;;;-9.44;60.18;100163.48;24437;1340;3051579;-65
2023/01/07 02:28:44;;;;;;;8.00;3.00;;;;;;;-9.42;60.32;100165.59;24535;1334;3053039;-62
2023/01/07 02:31:40;;;;;;;8.80;2.90;;;;;;;-9.51;60.60;100168.36;24530;1333;3049032;-63
2023/01/07 02:34:32;;;;;;;5.60;2.80;;;;;;;-9.51;60.92;100165.83;24486;1327;3069056;-64
2023/01/07 02:37:16;;;;;;;4.40;2.10;;;;;;;-9.71;61.08;100166.55;24560;1322;3049644;-65
2023/01/07 02:40:12;;;;;;;5.20;2.30;;;;;;;-9.41;61.13;100167.81;24523;1327;3056628;-65
2023/01/07 02:42:44;;;;;;;6.40;2.30;;;;;;;-8.40;59.38;100166.84;24507;1327;3052248;-65
2023/01/07 02:45:15;;;;;;;9.20;2.90;;;;;;;-8.49;57.86;100168.63;24499;1337;3025466;-65
2023/01/07 02:47:59;;;;;;;7.90;2.90;;;;;;;-8.78;58.60;100170.72;24504;1334;3028430;-64
2023/01/07 02:50:28;;;;;;;7.40;2.80;;;;;;;-8.81;58.39;100175.73;24510;1319;3053928;-62
2023/01/07 02:52:58;;;;;;;8.00;2.50;;;;;;;-9.27;59.31;100176.42;24453;1334;3027516;-62
2023/01/07 02:55:36;;;;;;;8.40;3.30;;;;;;;-9.25;59.71;100179.52;24452;1334;3028648;-66
2023/01/07 02:58:20;;;;;;;10.60;3.30;;;;;;;-9.36;59.80;100179.02;24452;1340;3052760;-63
2023/01/07 03:00:49;;;;;;;9.70;2.80;;;;;;;-9.65;60.58;100176.06;24476;1327;3049760;-64
2023/01/07 03:03:56;;;;;;;7.00;3.30;;;;;;;-9.86;61.18;100183.02;24470;1334;3028429;-65
2023/01/07 03:06:29;;;;;;;1.80;0.90;;;;;;;-9.64;60.88;100177.29;24497;1333;3053718;-66
2023/01/07 03:09:17;;;;;;;8.60;2.30;;;;;;;-9.59;60.52;100180.33;24508;1334;3048846;-63
2023/01/07 03:11:55;;;;;;;6.00;2.30;;;;;;;-8.88;58.46;100180.27;24440;1327;3070189;-64
2023/01/07 03:14:47;;;;;;;10.10;3.20;;;;;;;-8.94;57.74;100179.41;24466;1334;3049954;-67
2023/01/07 03:17:21;;;;;;;5.30;2.90;;;;;;;-8.78;57.74;100187.88;24492;1327;3055746;-63
2023/01/07 03:19:53;;;;;;;7.60;2.60;;;;;;;-9.09;57.86;100190.51;24460;1334;3053371;-67
2023/01/07 03:22:24;;;;;;;4.40;2.30;;;;;;;-9.54;58.99;100190.50;24488;1334;3026056;-64
2023/01/07 03:24:55;;;;;;;4.90;2.60;;;;;;;-9.44;59.07;100198.27;24559;1333;3026451;-69
2023/01/07 03:27:25;;;;;;;7.70;3.50;;;;;;;-9.75;59.46;100204.23;24548;1334;3026860;-64
2023/01/07 03:29:56;;;;;;;5.50;2.60;;;;;;;-9.93;60.16;100205.85;24456;1330;3026413;-64
2023/01/07 03:32:31;;;;;;;3.80;1.90;;;;;;;-9.97;60.99;100210.80;24469;1333;3051381;-65
2023/01/07 03:35:03;;;;;;;6.40;2.60;;;;;;;-9.73;61.36;100208.21;24532;1327;3052374;-64
2023/01/07 03:37:32;;;;;;;6.50;2.60;;;;;;;-8.95;59.44;100209.79;24439;1326;3030767;-65
2023/01/07 03:40:04;;;;;;;7.60;3.10;;;;;;;-8.46;57.09;100212.55;24493;1334;3027197;-64
2023/01/07 03:42:40;;;;;;;2.60;1.50;;;;;;;-8.51;56.60;100219.73;24478;1334;3052075;-60
2023/01/07 03:45:22;;;;;;;5.50;2.60;;;;;;;-8.73;56.78;100226.23;24515;1317;3049265;-62
2023/01/07 03:47:53;;;;;;;4.40;2.20;;;;;;;-9.09;57.26;100237.54;24502;1334;3028075;-62
2023/01/07 03:50:22;;;;;;;4.50;2.30;;;;;;;-9.54;58.21;100245.44;24412;1337;3026030;-63
2023/01/07 03:52:52;;;;;;;6.90;3.20;;;;;;;-9.82;59.16;100248.60;24476;1334;3028539;-64
2023/01/07 03:55:22;;;;;;;6.10;3.00;;;;;;;-10.17;60.19;100255.35;24488;1334;3026677;-64
2023/01/07 03:57:53;;;;;;;7.70;2.80;;;;;;;-10.24;61.07;100255.27;24482;1332;3026326;-66
2023/01/07 04:00:22;;;;;;;1.80;1.40;;;;;;;-10.14;61.26;100254.27;24508;1329;3026038;-66
2023/01/07 04:02:55;;;;;;;;;;;;;;;-9.62;60.87;100258.57;24476;1334;3052269;-66
2023/01/07 04:05:29;;;;;;;4.00;2.10;;;;;;;-8.91;58.86;100253.73;24462;1326;3051976;-64
2023/01/07 04:08:09;;;;;;;6.40;2.50;;;;;;;-8.91;58.36;100254.75;24487;1327;3051887;-63
2023/01/07 04:10:40;;;;;;;7.80;2.70;;;;;;;-8.84;57.98;100266.14;24467;1326;3025150;-67
2023/01/07 04:13:10;;;;;;;4.90;2.10;;;;;;;-8.90;57.77;100272.92;24484;1340;3026209;-65
2023/01/07 04:15:40;;;;;;;9.50;3.80;;;;;;;-9.25;58.31;100276.59;24545;1326;3027004;-62
2023/01/07 04:18:09;;;;;;;8.00;3.50;;;;;;;-9.34;58.42;100278.51;24537;1332;3028614;-68
2023/01/07 04:20:44;;;;;;;9.40;3.30;;;;;;;-9.48;59.10;100281.43;24488;1333;3025945;-66
2023/01/07 04:23:14;;;;;;;7.60;3.30;;;;;;;-9.47;59.26;100283.48;24579;1332;3027136;-64
2023/01/07 04:25:47;;;;;;;7.00;3.00;;;;;;;-9.48;58.81;100286.36;24476;1337;3053770;-62
2023/01/07 04:28:18;;;;;;;5.20;2.50;;;;;;;-9.60;59.03;100289.68;24509;1327;3026366;-64
2023/01/07 04:30:47;;;;;;;2.10;1.20;;;;;;;-9.52;59.42;100290.48;24571;1334;3026657;-62
2023/01/07 04:33:16;;;;;;;10.30;2.50;;;;;;;-8.74;57.93;100293.09;24463;1340;3053214;-65
2023/01/07 04:35:45;;;;;;;4.20;2.00;;;;;;;-7.98;55.81;100291.40;24515;1334;3026539;-66
2023/01/07 04:38:16;;;;;;;7.30;2.50;;;;;;;-7.91;55.06;100293.79;24516;1327;3051459;-66
2023/01/07 04:40:45;;;;;;;8.70;2.80;;;;;;;-8.05;55.10;100300.02;24522;1334;3025993;-65
2023/01/07 04:43:15;;;;;;;5.40;2.50;;;;;;;-8.17;55.11;100298.34;24439;1333;3025428;-63
2023/01/07 04:45:44;;;;;;;9.10;3.70;;;;;;;-8.32;55.25;100301.48;24522;1338;3026296;-67
2023/01/07 04:48:16;;;;;;;6.80;2.80;;;;;;;-8.54;55.63;100302.20;24479;1344;3026874;-66
2023/01/07 04:50:46;;;;;;;8.50;3.00;;;;;;;-8.72;56.29;100300.98;24514;1327;3028176;-64
2023/01/07 04:53:17;;;;;;;7.80;2.90;;;;;;;-8.71;56.34;100305.09;24577;1328;3027018;-66
2023/01/07 04:55:48;;;;;;;6.10;2.50;;;;;;;-8.75;56.35;100305.66;24531;1333;3026134;-67
2023/01/07 04:58:18;;;;;;;5.70;2.80;;;;;;;-8.94;56.89;100305.60;24561;1333;3026083;-65
2023/01/07 05:00:47;;;;;;;4.90;2.50;;;;;;;-8.86;57.40;100307.69;24551;1331;3026224;-66
2023/01/07 05:03:18;;;;;;;9.60;3.50;;;;;;;-9.02;57.18;100309.91;24548;1327;3055940;-65
2023/01/07 05:05:48;;;;;;;10.10;2.80;;;;;;;-9.03;57.02;100312.08;24546;1333;3025888;-63
2023/01/07 05:08:18;;;;;;;5.30;2.80;;;;;;;-9.24;57.84;100317.35;24518;1326;3028639;-62
2023/01/07 05:10:50;;;;;;;2.80;1.50;;;;;;;-9.34;58.26;100320.58;24555;1334;3028591;-66
2023/01/07 05:13:21;;;;;;;3.30;1.50;;;;;;;-9.43;58.91;100322.33;24528;1333;3052704;-66
2023/01/07 05:15:50;;;;;;;4.00;1.90;;;;;;;-8.82;57.84;100322.95;24580;1340;3026877;-67
2023/01/07 05:18:20;;;;;;;5.30;2.40;;;;;;;-8.07;56.65;100324.09;24621;1334;3026372;-64
2023/01/07 05:20:49;;;;;;;4.90;2.70;;;;;;;-7.93;55.82;100330.80;24474;1334;3027169;-66
2023/01/07 05:23:18;;;;;;;4.60;2.40;;;;;;;-7.91;56.17;100335.78;24562;1334;3052264;-67
2023/01/07 05:25:47;;;;;;;9.40;3.20;;;;;;;-8.13;56.11;100340.27;24584;1334;3026389;-64
2023/01/07 05:28:16;;;;;;;7.90;3.00;;;;;;;-8.33;56.04;100347.16;24503;1339;3051176;-65
2023/01/07 05:30:46;;;;;;;6.70;2.80;;;;;;;-8.40;56.28;100350.01;24507;1334;3025183;-65
2023/01/07 05:33:19;;;;;;;5.00;2.60;;;;;;;-8.70;56.43;100354.90;24503;1330;3026358;-68
2023/01/07 05:35:49;;;;;;;6.70;3.20;;;;;;;-8.89;57.36;100359.08;24566;1332;3028258;-66
2023/01/07 05:38:19;;;;;;;5.10;2.10;;;;;;;-8.83;57.56;100361.63;24555;1334;3029199;-69
2023/01/07 05:40:48;;;;;;;7.40;3.10;;;;;;;-8.92;57.71;100364.04;24459;1334;3025131;-64
2023/01/07 05:43:20;;;;;;;5.30;3.00;;;;;;;-9.09;58.31;100363.67;24531;1334;3052676;-68
2023/01/07 05:45:49;;;;;;;9.90;2.70;;;;;;;-8.99;58.58;100366.73;24562;1333;3026715;-65
2023/01/07 05:48:18;;;;;;;9.70;3.40;;;;;;;-9.07;58.56;100370.03;24591;1334;3025018;-64
2023/01/07 05:50:47;;;;;;;7.20;3.40;;;;;;;-9.15;59.07;100373.16;24543;1343;3051741;-64
2023/01/07 05:53:16;;;;;;;5.80;2.70;;;;;;;-9.10;59.08;100376.20;24528;1327;3028190;-65
2023/01/07 05:55:45;;;;;;;9.80;3.10;;;;;;;-9.09;58.93;100376.92;24496;1327;3050656;-65
2023/01/07 05:58:14;;;;;;;7.40;3.10;;;;;;;-9.03;58.79;100381.35;24532;1333;3024908;-64
2023/01/07 06:00:44;;;;;;;8.40;3.50;;;;;;;-9.05;59.27;100378.41;24561;1334;3028650;-66
2023/01/07 06:03:13;;;;;;;7.00;3.60;;;;;;;-9.07;59.51;100383.42;24485;1334;3026757;-62
2023/01/07 06:05:42;;;;;;;8.00;3.70;;;;;;;-9.09;59.37;100384.21;24517;1334;3052390;-65
2023/01/07 06:08:11;;;;;;;7.10;2.90;;;;;;;-8.98;59.48;100384.06;24616;1326;3025987;-66
2023/01/07 06:10:40;;;;;;;8.50;3.50;;;;;;;-8.89;59.13;100384.19;24592;1326;3050884;-64
2023/01/07 06:13:09;;;;;;;7.60;3.50;;;;;;;-8.89;59.32;100385.03;24567;1334;3028117;-68
2023/01/07 06:15:39;;;;;;;7.40;3.70;;;;;;;-8.94;59.07;100389.81;24479;1330;3026392;-64
2023/01/07 06:18:06;;;;;;;9.00;3.60;;;;;;;-8.89;58.69;100399.14;23694;1334;4886717;-65
2023/01/07 06:20:35;;;;;;;9.40;3.50;;;;;;;-9.01;58.74;100403.15;24458;1325;3027523;-64
2023/01/07 06:23:04;;;;;;;7.20;3.70;;;;;;;-9.12;59.39;100404.98;24536;1337;3026521;-65
2023/01/07 06:25:33;;;;;;;6.90;3.30;;;;;;;-9.17;59.40;100406.68;24504;1333;3028017;-65
2023/01/07 06:28:03;;;;;;;6.20;3.50;;;;;;;-9.03;59.24;100405.47;24631;1327;3028251;-67
2023/01/07 06:30:34;;;;;;;7.50;3.60;;;;;;;-8.81;58.72;100404.83;24512;1326;3048537;-64
2023/01/07 06:33:06;;;;;;;8.40;3.60;;;;;;;-8.61;57.91;100411.26;24589;1336;3025860;-66
2023/01/07 06:35:35;;;;;;;7.90;3.80;;;;;;;-8.55;57.15;100409.89;24545;1327;3026617;-65
2023/01/07 06:39:12;;;;;;;12.80;3.60;;;;;;;-8.30;56.51;100409.29;30937;1336;3014914;-63
2023/01/07 06:41:42;;;;;;;10.10;3.80;;;;;;;-8.40;56.41;100407.96;24539;1339;3026841;-65
2023/01/07 06:44:10;;;;;;;8.20;3.70;;;;;;;-8.38;56.28;100413.64;24508;1338;3026422;-64
2023/01/07 06:46:39;;;;;;;11.90;4.20;;;;;;;-8.31;56.36;100417.61;24525;1338;3049589;-66
2023/01/07 06:49:08;;;;;;;9.10;4.20;;;;;;;-8.40;56.08;100421.71;24570;1323;3026743;-64
2023/01/07 06:51:35;;;;;;;6.10;3.30;;;;;;;-8.40;56.21;100426.17;23703;1336;4786429;-65
2023/01/07 06:54:04;;;;;;;11.60;4.10;;;;;;;-8.30;56.09;100431.21;24576;1336;3052573;-67
2023/01/07 06:56:34;;;;;;;11.40;4.40;;;;;;;-8.18;55.76;100430.39;24451;1325;3026994;-65
2023/01/07 06:59:03;;;;;;;10.60;4.50;;;;;;;-8.30;55.25;100438.52;24468;1329;3026643;-65
2023/01/07 07:01:32;;;;;;;11.10;4.90;;;;;;;-8.22;55.68;100448.46;24475;1336;3052529;-69
2023/01/07 07:04:02;;;;;;;20.50;6.50;;;;;;;-8.03;55.35;100445.30;24475;1329;3028730;-64
2023/01/07 07:06:31;;;;;;;13.10;6.30;;;;;;;-8.14;55.04;100452.45;24572;1336;3052852;-65
2023/01/07 07:09:00;;;;;;;14.20;6.20;;;;;;;-8.01;54.58;100447.25;24545;1328;3026526;-65
2023/01/07 07:11:31;;;;;;;14.90;6.10;;;;;;;-8.11;54.50;100445.23;24580;1329;3026337;-67
2023/01/07 07:14:00;;;;;;;17.30;7.40;;;;;;;-7.97;55.01;100444.96;24542;1336;3025706;-68
2023/01/07 07:16:29;;;;;;;17.00;7.60;;;;;;;-7.85;54.64;100450.08;24596;1325;3026168;-63
2023/01/07 07:18:58;;;;;;;16.40;6.60;;;;;;;-7.70;54.33;100452.75;24525;1324;3051067;-65
2023/01/07 07:21:27;;;;;;;19.20;6.80;;;;;;;-7.65;53.66;100453.24;24517;1333;3026522;-67
2023/01/07 07:23:57;;;;;;;15.00;6.10;;;;;;;-7.79;53.36;100451.13;24540;1325;3053054;-67
2023/01/07 07:26:25;;;;;;;13.70;7.10;;;;;;;-7.66;53.87;100457.79;24529;1318;3025815;-64
2023/01/07 07:28:54;;;;;;;12.70;6.40;;;;;;;-7.72;52.34;100459.84;24535;1344;3051659;-69
2023/01/07 07:31:23;;;;;;;14.60;5.70;;;;;;;-7.72;51.55;100460.86;24497;1332;3026358;-64
2023/01/07 07:33:52;;;;;;;13.80;6.40;;;;;;;-7.69;52.05;100463.48;24519;1333;3054916;-65
2023/01/07 07:36:22;;;;;;;12.10;6.00;;;;;;;-7.73;51.83;100465.60;24488;1332;3027935;-61
2023/01/07 07:38:50;;;;;;;14.30;6.20;;;;;;;-7.70;51.84;100470.77;24469;1324;3025729;-66
2023/01/07 07:41:22;;;;;;;12.00;4.70;;;;;;;-7.64;51.54;100476.05;24498;1334;3056003;-66
2023/01/07 07:43:51;;;;;;;11.60;5.60;;;;;;;-7.67;51.15;100479.55;24548;1325;3028923;-68
2023/01/07 07:46:20;;;;;;;13.50;5.40;;;;;;;-7.57;50.99;100484.76;24506;1333;3050151;-66
2023/01/07 07:48:51;;;;;;;19.50;6.90;;;;;;;-7.77;50.35;100483.15;24554;1334;3026501;-62
2023/01/07 07:51:20;;;;;;;18.40;7.90;;;;;;;-8.07;51.41;100490.39;24586;1326;3028561;-62
2023/01/07 07:53:49;;;;;;;15.20;6.30;;;;;;;-7.86;51.09;100494.29;24549;1333;3049278;-65
2023/01/07 07:56:22;;;;;;;17.50;6.60;;;;;;;-7.63;50.58;100498.20;24580;1333;3058306;-66
2023/01/07 07:58:52;;;;;;;12.40;6.00;;;;;;;-7.70;50.59;100502.41;24599;1327;3026935;-63
2023/01/07 08:01:21;;;;;;;13.10;5.50;;;;;;;-7.78;50.23;100512.89;24630;1339;3026225;-74
2023/01/07 08:03:50;;;;;;;13.70;5.70;;;;;;;-7.76;50.30;100513.84;24639;1328;3055798;-64
2023/01/07 08:06:19;;;;;;;16.30;6.30;;;;;;;-7.46;50.60;100512.14;24589;1333;3026748;-62
2023/01/07 08:08:48;;;;;;;14.70;6.70;;;;;;;-7.27;48.58;100509.11;24561;1333;3026184;-66
2023/01/07 08:11:18;;;;;;;17.20;6.40;;;;;;;-7.34;48.99;100509.95;24530;1327;3057159;-64
2023/01/07 08:13:47;;;;;;;16.60;7.10;;;;;;;-7.18;48.90;100504.92;24469;1332;3026552;-62
2023/01/07 08:16:16;;;;;;;16.30;6.90;;;;;;;-7.24;49.44;100503.05;24543;1339;3049945;-62
2023/01/07 08:18:45;;;;;;;14.40;6.80;;;;;;;-7.42;49.43;100504.59;24482;1326;3028004;-65
2023/01/07 08:21:14;;;;;;;17.30;7.50;;;;;;;-7.35;50.26;100507.17;24517;1326;3068705;-64
2023/01/07 08:23:43;;;;;;;13.20;6.80;;;;;;;-7.06;50.44;100504.59;24493;1329;3028356;-66
2023/01/07 08:26:13;;;;;;;17.60;7.70;;;;;;;-6.83;49.88;100506.90;24501;1333;3049278;-63
2023/01/07 08:28:42;;;;;;;15.60;6.60;;;;;;;-6.67;48.88;100504.93;24567;1333;3025985;-66
2023/01/07 08:31:11;;;;;;;16.20;7.60;;;;;;;-7.01;48.53;100506.41;24531;1333;3052776;-63
2023/01/07 08:33:40;;;;;;;16.70;7.10;;;;;;;-6.98;48.78;100506.14;24528;1335;3028698;-66
2023/01/07 08:36:09;;;;;;;16.90;6.70;;;;;;;-7.03;49.77;100507.39;24545;1329;3049451;-70
2023/01/07 08:38:38;;;;;;;13.20;6.30;;;;;;;-6.94;50.36;100509.34;24520;1333;3025883;-63
2023/01/07 08:41:07;;;;;;;15.70;7.00;;;;;;;-6.81;49.80;100510.02;24556;1329;3026158;-64
2023/01/07 08:43:37;;;;;;;17.60;6.50;;;;;;;-6.68;49.38;100507.62;24522;1329;3050539;-66
2023/01/07 08:46:06;;;;;;;15.50;6.90;;;;;;;-6.55;48.61;100509.83;24462;1336;3025816;-62
2023/01/07 08:48:34;;;;;;;13.80;5.90;;;;;;;-6.46;48.16;100506.85;24448;1329;3051626;-65
2023/01/07 08:51:03;;;;;;;15.20;6.30;;;;;;;-6.60;49.06;100510.58;24497;1334;3028911;-62
2023/01/07 08:53:33;;;;;;;13.10;7.40;;;;;;;-6.41;48.31;100509.85;24420;1335;3052316;-66
2023/01/07 08:56:03;;;;;;;19.80;7.50;;;;;;;-6.28;48.01;100516.48;24431;1336;3028598;-62
2023/01/07 08:58:32;;;;;;;22.20;8.60;;;;;;;-6.44;47.47;100510.45;24434;1336;3029200;-64
2023/01/07 09:01:02;;;;;;;23.90;7.80;;;;;;;-6.27;48.66;100506.95;24513;1342;3025946;-63
2023/01/07 09:03:35;;;;;;;22.80;9.30;;;;;;;-6.23;47.26;100506.20;24431;1335;3027221;-62
2023/01/07 09:06:04;;;;;;;24.00;10.10;;;;;;;-6.29;46.35;100505.03;24446;1328;3028045;-66
2023/01/07 09:08:33;;;;;;;27.30;9.50;;;;;;;-6.06;46.52;100508.30;24411;1335;3052030;-65
2023/01/07 09:11:02;;;;;;;20.20;9.50;;;;;;;-5.85;46.40;100502.44;24483;1321;3028784;-65
2023/01/07 09:13:31;;;;;;;27.00;10.80;;;;;;;-5.90;45.89;100499.95;24432;1335;3049347;-64
2023/01/07 09:16:00;;;;;;;23.40;8.80;;;;;;;-6.01;45.11;100496.11;24482;1336;3028755;-62
2023/01/07 09:18:29;;;;;;;16.00;7.40;;;;;;;-5.84;44.63;100489.84;24410;1335;3052245;-63
2023/01/07 09:20:58;;;;;;;19.80;8.50;;;;;;;-5.66;43.78;100491.27;24464;1331;3028644;-61
2023/01/07 09:23:52;;;;;;;16.90;7.60;;;;;;;-5.55;44.30;100487.90;30834;1330;3014669;-67
2023/01/07 09:26:20;;;;;;;19.10;9.00;;;;;;;-5.62;44.30;100485.02;24443;1330;3029082;-61
2023/01/07 09:28:49;;;;;;;16.40;8.50;;;;;;;-5.91;44.06;100490.38;24517;1335;3028340;-62
2023/01/07 09:31:18;;;;;;;18.60;8.50;;;;;;;-5.88;43.31;100488.89;24516;1336;3049108;-65
2023/01/07 09:33:47;;;;;;;19.50;8.20;;;;;;;-5.92;43.60;100486.78;24482;1336;3025904;-62
2023/01/07 09:36:14;;;;;;;16.20;7.00;;;;;;;-5.78;44.18;100480.77;23683;1329;4796622;-64
2023/01/07 09:38:43;;;;;;;17.00;8.40;;;;;;;-5.79;44.27;100475.45;24448;1333;3024885;-62
2023/01/07 09:41:45;;;;;;;15.50;7.30;;;;;;;-5.71;43.72;100471.69;24466;1327;3026350;-65
2023/01/07 09:44:22;;;;;;;14.20;7.00;;;;;;;-5.54;42.45;100466.59;24500;1333;3052172;-65
2023/01/07 09:46:52;;;;;;;15.90;6.40;;;;;;;-5.40;41.69;100466.88;24499;1332;3049542;-64
2023/01/07 09:49:27;;;;;;;17.50;7.70;;;;;;;-5.39;41.86;100467.92;24476;1326;3025923;-64
2023/01/07 09:52:00;;;;;;;15.50;6.90;;;;;;;-5.41;42.82;100467.20;24500;1338;3050152;-67
2023/01/07 09:54:33;;;;;;;13.10;6.50;;;;;;;-5.34;41.10;100470.05;24567;1334;3025730;-61
2023/01/07 09:57:03;;;;;;;14.40;7.00;;;;;;;-5.43;39.85;100473.98;24541;1329;3028098;-64
2023/01/07 09:59:32;;;;;;;15.20;6.40;;;;;;;-5.66;40.24;100471.27;24517;1332;3026454;-67
2023/01/07 10:02:38;;;;;;;15.00;6.50;;;;;;;-5.28;40.79;100468.48;24540;1333;3028258;-66
2023/01/07 10:05:16;;;;;;;14.30;6.90;;;;;;;-5.33;40.21;100460.35;24570;1335;3052977;-68
2023/01/07 10:07:56;;;;;;;14.00;6.10;;;;;;;-4.99;39.66;100459.63;24510;1333;3053981;-67
2023/01/07 10:10:30;;;;;;;11.60;5.90;;;;;;;-4.99;39.22;100460.65;24594;1326;3050680;-67
2023/01/07 10:13:07;;;;;;;12.10;5.00;;;;;;;-4.64;39.88;100460.25;24563;1333;3052136;-68
2023/01/07 10:15:48;;;;;;;12.70;5.30;;;;;;;-4.64;38.13;100461.27;24526;1333;3048620;-63
2023/01/07 10:18:42;;;;;;;13.70;5.70;;;;;;;-4.59;37.70;100461.17;24557;1327;3069450;-65
2023/01/07 10:21:13;;;;;;;10.60;5.00;;;;;;;-4.75;38.05;100455.09;24534;1335;3050395;-62
2023/01/07 10:23:44;;;;;;;17.10;6.70;;;;;;;-4.63;38.20;100455.13;24442;1336;3028593;-63
2023/01/07 10:26:22;;;;;;;13.50;5.60;;;;;;;-4.80;38.33;100461.33;24573;1333;3025370;-65
2023/01/07 10:28:56;;;;;;;9.90;4.60;;;;;;;-4.63;38.02;100462.15;24560;1333;3053310;-63
2023/01/07 10:31:25;;;;;;;9.80;5.10;;;;;;;-4.87;38.30;100463.44;24547;1326;3050361;-63
2023/01/07 10:33:56;;;;;;;12.80;5.40;;;;;;;-4.82;38.42;100461.65;24439;1336;3028572;-67
2023/01/07 10:36:39;;;;;;;12.10;5.40;;;;;;;-4.86;37.50;100461.73;24487;1335;3028130;-66
2023/01/07 10:39:18;;;;;;;9.40;5.00;;;;;;;-4.99;37.39;100462.88;24496;1326;3069583;-66
2023/01/07 10:42:11;;;;;;;12.40;4.30;;;;;;;-4.77;37.10;100463.27;24532;1334;3049353;-64
2023/01/07 10:44:52;;;;;;;11.10;4.20;;;;;;;-4.80;36.12;100464.92;24448;1343;3056686;-62
2023/01/07 10:48:01;;;;;;;9.90;4.20;;;;;;;-4.58;36.11;100467.52;24509;1326;3052756;-65
2023/01/07 10:51:11;;;;;;;16.80;4.90;;;;;;;-4.50;36.34;100467.16;24427;1336;3054605;-67
2023/01/07 10:54:34;;;;;;;9.50;3.70;;;;;;;-4.48;36.62;100468.38;24496;1328;3050677;-63
2023/01/07 10:57:09;;;;;;;9.80;4.40;;;;;;;-4.34;36.48;100469.46;24393;1334;3053408;-67
2023/01/07 10:59:38;;;;;;;12.30;4.90;;;;;;;-4.39;36.68;100464.93;24485;1336;3048668;-63
2023/01/07 11:02:13;;;;;;;9.20;3.90;;;;;;;-3.98;36.72;100464.55;24409;1329;3028901;-64
2023/01/07 11:04:42;;;;;;;13.20;4.50;;;;;;;-4.20;36.69;100467.97;24484;1333;3053210;-61
2023/01/07 11:07:42;;;;;;;10.60;4.40;;;;;;;-4.14;36.24;100466.70;24464;1325;3025984;-61
2023/01/07 11:10:14;;;;;;;12.10;5.10;;;;;;;-4.09;35.51;100466.60;24531;1333;3050893;-64
2023/01/07 11:12:53;;;;;;;13.00;5.40;;;;;;;-4.42;35.42;100470.52;24433;1333;3052556;-64
2023/01/07 11:15:34;;;;;;;11.30;4.70;;;;;;;-4.51;35.41;100470.73;24475;1327;3050116;-66
2023/01/07 11:18:18;;;;;;;10.10;4.30;;;;;;;-4.42;34.67;100474.13;24574;1326;3068627;-64
2023/01/07 11:20:48;;;;;;;7.90;3.30;;;;;;;-4.58;35.50;100477.10;24583;1333;3048864;-66
2023/01/07 11:23:34;;;;;;;10.70;4.10;;;;;;;-4.48;35.80;100478.13;24551;1333;3026139;-70
2023/01/07 11:26:11;;;;;;;8.90;3.50;;;;;;;-4.13;36.19;100479.71;24521;1333;3052784;-62
2023/01/07 11:29:02;;;;;;;10.30;4.20;;;;;;;-3.70;35.47;100474.85;24508;1334;3053742;-64
2023/01/07 11:31:47;;;;;;;11.60;3.70;;;;;;;-4.07;35.14;100477.23;24557;1326;3051395;-68
2023/01/07 11:34:26;;;;;;;6.20;2.70;;;;;;;-4.09;35.57;100482.50;24550;1322;3052151;-71
2023/01/07 11:36:56;;;;;;;12.40;3.60;;;;;;;-4.11;35.97;100486.59;24549;1332;3049856;-66
2023/01/07 11:39:28;;;;;;;8.10;3.40;;;;;;;-4.18;36.11;100487.17;24597;1326;3026163;-64